Time;durP1;ratioP1;P1;durP2;ratioP2;P2;SDS_P1;SDS_P2;PMS_P1;PMS_P2;Temp;Humidity;BMP_temperature;BMP_pressure;BME280_temperature;BME280_humidity;BME280_pressure;Samples;Min_cycle;Max_cycle;Signal;HPM_P1;HPM_P2
2022/09/10 00:01:59;;;;;;;;;;;21.80;64.60;;;;;;5016978;28;19920;-75
2022/09/10 00:04:25;;;;;;;;;;;21.80;64.60;;;;;;5003455;28;19924;-75
2022/09/10 00:06:51;;;;;;;;;;;21.80;64.40;;;;;;5007631;28;20067;-75
2022/09/10 00:09:16;;;;;;;;;;;21.80;64.50;;;;;;5017650;28;19921;-74
2022/09/10 00:11:42;;;;;;;;;;;21.80;64.40;;;;;;5011317;28;19917;-74
2022/09/10 00:14:09;;;;;;;;;;;21.80;64.30;;;;;;4987367;28;19950;-74
2022/09/10 00:16:34;;;;;;;;;;;21.80;64.30;;;;;;5014411;28;19917;-75
2022/09/10 00:19:00;;;;;;;;;;;21.80;64.20;;;;;;5016184;28;19921;-75
2022/09/10 00:21:25;;;;;;;;;;;21.90;64.20;;;;;;4985880;28;20019;-75
2022/09/10 00:23:51;;;;;;;;;;;21.80;64.20;;;;;;4999820;28;19929;-75
2022/09/10 00:26:20;;;;;;;;;;;21.90;64.20;;;;;;5008602;28;19923;-75
2022/09/10 00:28:46;;;;;;;;;;;21.90;64.10;;;;;;5016328;28;19913;-75
2022/09/10 00:31:12;;;;;;;;;;;21.90;64.10;;;;;;4990481;28;19925;-75
2022/09/10 00:33:37;;;;;;;;;;;21.90;64.10;;;;;;5005337;28;19913;-74
2022/09/10 00:36:04;;;;;;;;;;;21.80;63.90;;;;;;5001407;28;19921;-75
2022/09/10 00:38:30;;;;;;;;;;;21.80;64.00;;;;;;5004387;28;19932;-75
2022/09/10 00:41:07;;;;;;;;;;;21.80;64.10;;;;;;5014741;28;19917;-75
2022/09/10 00:43:51;;;;;;;;;;;21.80;64.30;;;;;;5008413;28;19924;-75
2022/09/10 00:46:19;;;;;;;;;;;21.80;64.00;;;;;;5001976;28;19940;-74
2022/09/10 00:48:44;;;;;;;;;;;21.80;64.20;;;;;;5006483;28;19924;-75
2022/09/10 00:51:10;;;;;;;;;;;21.80;64.00;;;;;;5008300;28;19921;-75
2022/09/10 00:53:35;;;;;;;;;;;21.80;64.00;;;;;;4995292;28;19968;-76
2022/09/10 00:56:04;;;;;;;;;;;21.80;63.90;;;;;;5008058;28;19921;-76
2022/09/10 00:58:30;;;;;;;;;;;21.80;63.80;;;;;;5008534;28;19917;-75
2022/09/10 01:00:57;;;;;;;;;;;21.80;63.80;;;;;;5001732;28;19933;-76
2022/09/10 01:03:22;;;;;;;;;;;21.80;63.90;;;;;;5005468;28;19957;-76
2022/09/10 01:05:48;;;;;;;;;;;21.90;64.00;;;;;;5007500;28;19991;-75
2022/09/10 01:08:14;;;;;;;;;;;21.80;63.90;;;;;;5004851;28;19925;-75
2022/09/10 01:11:10;;;;;;;;;;;21.80;63.90;;;;;;5002102;28;19953;-75
2022/09/10 01:13:54;;;;;;;;;;;21.80;64.00;;;;;;4996179;28;20019;-76
2022/09/10 01:16:29;;;;;;;;;;;21.80;64.00;;;;;;5003268;28;19945;-75
2022/09/10 01:18:54;;;;;;;;;;;21.80;63.90;;;;;;5013725;28;20361;-75
2022/09/10 01:21:21;;;;;;;;;;;21.80;63.90;;;;;;5014873;28;20016;-75
2022/09/10 01:23:59;;;;;;;;;;;21.80;63.90;;;;;;5013983;28;19917;-74
2022/09/10 01:26:30;;;;;;;;;;;21.80;63.90;;;;;;5003162;28;19922;-75
2022/09/10 01:28:59;;;;;;;;;;;21.80;64.10;;;;;;5002489;28;19936;-75
2022/09/10 01:31:25;;;;;;;;;;;21.70;64.00;;;;;;5007020;28;19934;-75
2022/09/10 01:34:13;;;;;;;;;;;21.80;64.00;;;;;;5006971;28;19918;-75
2022/09/10 01:36:39;;;;;;;;;;;21.70;64.00;;;;;;4994364;28;20389;-74
2022/09/10 01:39:04;;;;;;;;;;;21.80;64.00;;;;;;5005471;28;19979;-74
2022/09/10 01:41:30;;;;;;;;;;;21.80;63.80;;;;;;5011275;28;19936;-75
2022/09/10 01:43:55;;;;;;;;;;;21.70;63.80;;;;;;5011202;28;19967;-74
2022/09/10 01:46:43;;;;;;;;;;;21.60;63.70;;;;;;5005906;28;19960;-76
2022/09/10 01:49:15;;;;;;;;;;;21.80;63.70;;;;;;4987598;28;20011;-75
2022/09/10 01:51:40;;;;;;;;;;;21.70;63.80;;;;;;5008464;28;19913;-75
2022/09/10 01:54:15;;;;;;;;;;;21.70;63.70;;;;;;5011440;28;20389;-75
2022/09/10 01:56:40;;;;;;;;;;;21.70;63.90;;;;;;5011791;28;19940;-75
2022/09/10 01:59:24;;;;;;;;;;;21.60;63.90;;;;;;5014890;28;19957;-75
2022/09/10 02:01:51;;;;;;;;;;;21.70;63.80;;;;;;5013173;28;19921;-75
2022/09/10 02:04:16;;;;;;;;;;;21.70;63.90;;;;;;5014414;28;19932;-76
2022/09/10 02:06:43;;;;;;;;;;;21.70;63.80;;;;;;5011522;28;19921;-75
2022/09/10 02:09:09;;;;;;;;;;;21.70;63.60;;;;;;5011674;28;20047;-74
2022/09/10 02:11:45;;;;;;;;;;;21.70;63.60;;;;;;5010602;28;20008;-76
2022/09/10 02:14:13;;;;;;;;;;;21.70;63.70;;;;;;5017890;28;19940;-75
2022/09/10 02:16:40;;;;;;;;;;;21.70;63.70;;;;;;5015783;28;19935;-74
2022/09/10 02:19:06;;;;;;;;;;;21.70;63.70;;;;;;5006377;28;19929;-75
2022/09/10 02:21:32;;;;;;;;;;;21.70;63.80;;;;;;5007503;28;19921;-74
2022/09/10 02:24:01;;;;;;;;;;;21.60;63.70;;;;;;4991469;28;19921;-75
2022/09/10 02:26:26;;;;;;;;;;;21.60;63.80;;;;;;5019227;28;19914;-75
2022/09/10 02:28:53;;;;;;;;;;;21.60;63.80;;;;;;5018634;28;19936;-74
2022/09/10 02:31:18;;;;;;;;;;;21.60;63.80;;;;;;5018625;28;19933;-75
2022/09/10 02:33:44;;;;;;;;;;;21.60;63.80;;;;;;5014029;28;19921;-75
2022/09/10 02:36:09;;;;;;;;;;;21.60;63.90;;;;;;5011851;28;20934;-76
2022/09/10 02:38:35;;;;;;;;;;;21.60;64.00;;;;;;5017697;28;19932;-75
2022/09/10 02:41:00;;;;;;;;;;;21.60;63.80;;;;;;5006485;28;20444;-75
2022/09/10 02:43:26;;;;;;;;;;;21.60;63.60;;;;;;5011683;28;20404;-75
2022/09/10 02:45:55;;;;;;;;;;;21.70;63.60;;;;;;5006860;28;20332;-75
2022/09/10 02:48:21;;;;;;;;;;;21.60;63.60;;;;;;5013110;28;19922;-74
2022/09/10 02:50:47;;;;;;;;;;;21.60;63.60;;;;;;5016071;28;19923;-75
2022/09/10 02:53:12;;;;;;;;;;;21.60;63.50;;;;;;4991608;28;20296;-75
2022/09/10 02:55:38;;;;;;;;;;;21.60;63.60;;;;;;5007893;28;20338;-75
2022/09/10 02:58:03;;;;;;;;;;;21.60;63.70;;;;;;5004475;28;19913;-74
2022/09/10 03:00:30;;;;;;;;;;;21.70;63.50;;;;;;4991575;28;19932;-75
2022/09/10 03:02:56;;;;;;;;;;;21.70;63.60;;;;;;5007835;28;20048;-75
2022/09/10 03:05:21;;;;;;;;;;;21.60;63.50;;;;;;4992445;28;19921;-74
2022/09/10 03:07:47;;;;;;;;;;;21.70;63.70;;;;;;5010484;28;19926;-75
2022/09/10 03:10:12;;;;;;;;;;;21.60;63.60;;;;;;5009455;28;19920;-76
2022/09/10 03:12:38;;;;;;;;;;;21.60;63.60;;;;;;5002309;28;19940;-74
2022/09/10 03:15:03;;;;;;;;;;;21.60;63.60;;;;;;5015526;28;19914;-74
2022/09/10 03:17:29;;;;;;;;;;;21.60;63.80;;;;;;5009784;28;20063;-75
2022/09/10 03:19:54;;;;;;;;;;;21.60;63.80;;;;;;5015734;28;20019;-74
2022/09/10 03:22:20;;;;;;;;;;;21.60;63.70;;;;;;5018021;28;19921;-75
2022/09/10 03:24:46;;;;;;;;;;;21.60;63.80;;;;;;5004198;28;19933;-75
2022/09/10 03:27:12;;;;;;;;;;;21.60;63.80;;;;;;4990525;28;19927;-74
2022/09/10 03:29:38;;;;;;;;;;;21.60;63.80;;;;;;5009046;28;19921;-74
2022/09/10 03:32:04;;;;;;;;;;;21.60;63.80;;;;;;5007832;28;20345;-75
2022/09/10 03:34:29;;;;;;;;;;;21.60;63.80;;;;;;5026104;28;20278;-75
2022/09/10 03:36:54;;;;;;;;;;;21.60;63.80;;;;;;4998011;28;20369;-74
2022/09/10 03:39:20;;;;;;;;;;;21.60;63.70;;;;;;5019353;28;19914;-75
2022/09/10 03:41:45;;;;;;;;;;;21.60;63.70;;;;;;5011233;28;19928;-75
2022/09/10 03:44:11;;;;;;;;;;;21.60;63.70;;;;;;5003173;28;19923;-75
2022/09/10 03:46:37;;;;;;;;;;;21.60;63.80;;;;;;5002737;28;20281;-75
2022/09/10 03:49:05;;;;;;;;;;;21.60;63.90;;;;;;5004792;28;20381;-75
2022/09/10 03:51:32;;;;;;;;;;;21.60;63.80;;;;;;5004892;28;19999;-75
2022/09/10 03:53:58;;;;;;;;;;;21.60;63.80;;;;;;5007155;28;19952;-75
2022/09/10 03:56:24;;;;;;;;;;;21.60;63.80;;;;;;5002670;28;20353;-76
2022/09/10 03:58:50;;;;;;;;;;;21.60;63.90;;;;;;5000141;28;19921;-76
2022/09/10 04:01:16;;;;;;;;;;;21.60;63.80;;;;;;5005468;28;20397;-74
2022/09/10 04:03:42;;;;;;;;;;;21.60;63.80;;;;;;5016610;28;19930;-74
2022/09/10 04:06:10;;;;;;;;;;;21.60;63.80;;;;;;4995706;28;20414;-74
2022/09/10 04:08:36;;;;;;;;;;;21.50;63.80;;;;;;4996961;28;19913;-74
2022/09/10 04:11:02;;;;;;;;;;;21.60;63.80;;;;;;4994060;28;20001;-75
2022/09/10 04:13:27;;;;;;;;;;;21.60;64.50;;;;;;4993991;28;19959;-75
2022/09/10 04:15:54;;;;;;;;;;;21.50;63.70;;;;;;4988203;28;19918;-74
2022/09/10 04:18:20;;;;;;;;;;;21.50;63.80;;;;;;4992537;28;19921;-74
2022/09/10 04:20:46;;;;;;;;;;;21.60;63.70;;;;;;5003477;28;19922;-75
2022/09/10 04:23:12;;;;;;;;;;;21.50;63.70;;;;;;4984665;28;20666;-74
2022/09/10 04:25:38;;;;;;;;;;;21.60;63.80;;;;;;4991717;28;19914;-75
2022/09/10 04:28:03;;;;;;;;;;;21.60;63.60;;;;;;4992908;28;19914;-75
2022/09/10 04:30:29;;;;;;;;;;;21.60;63.60;;;;;;4994564;28;19914;-75
2022/09/10 04:32:54;;;;;;;;;;;21.60;63.60;;;;;;4992454;28;19914;-75
2022/09/10 04:35:20;;;;;;;;;;;21.50;63.70;;;;;;4979218;28;20312;-75
2022/09/10 04:37:45;;;;;;;;;;;21.50;63.80;;;;;;4997703;28;19969;-75
2022/09/10 04:40:11;;;;;;;;;;;21.50;63.80;;;;;;4990212;28;20428;-75
2022/09/10 04:42:37;;;;;;;;;;;21.50;63.60;;;;;;4994070;28;20270;-75
2022/09/10 04:45:02;;;;;;;;;;;21.50;63.60;;;;;;5014844;28;19917;-74
2022/09/10 04:47:28;;;;;;;;;;;21.50;63.70;;;;;;4993846;28;19921;-74
2022/09/10 04:49:54;;;;;;;;;;;21.50;63.60;;;;;;4980207;28;19922;-74
2022/09/10 04:52:21;;;;;;;;;;;21.60;63.50;;;;;;4987081;28;19917;-75
2022/09/10 04:54:47;;;;;;;;;;;21.60;63.40;;;;;;4983323;28;20467;-75
2022/09/10 04:57:13;;;;;;;;;;;21.50;63.40;;;;;;5000678;28;19921;-74
2022/09/10 04:59:39;;;;;;;;;;;21.50;63.50;;;;;;4995278;28;19914;-74
2022/09/10 05:02:05;;;;;;;;;;;21.50;63.50;;;;;;5004068;28;20391;-75
2022/09/10 05:04:31;;;;;;;;;;;21.50;63.50;;;;;;5016974;28;20008;-74
2022/09/10 05:06:57;;;;;;;;;;;21.50;63.50;;;;;;5014379;28;19917;-75
2022/09/10 05:09:23;;;;;;;;;;;21.50;63.60;;;;;;5011123;28;20450;-75
2022/09/10 05:11:48;;;;;;;;;;;21.50;63.50;;;;;;5007863;28;19924;-75
2022/09/10 05:14:14;;;;;;;;;;;21.50;63.70;;;;;;5007149;28;19921;-76
2022/09/10 05:16:39;;;;;;;;;;;21.50;63.60;;;;;;5011301;28;20381;-75
2022/09/10 05:19:05;;;;;;;;;;;21.50;63.50;;;;;;5015753;28;20399;-75
2022/09/10 05:21:31;;;;;;;;;;;21.50;63.50;;;;;;5013547;28;20502;-75
2022/09/10 05:23:56;;;;;;;;;;;21.50;63.70;;;;;;4991951;28;20278;-75
2022/09/10 05:26:22;;;;;;;;;;;21.50;63.80;;;;;;5003693;28;19924;-74
2022/09/10 05:28:47;;;;;;;;;;;21.40;63.70;;;;;;5003895;28;20389;-75
2022/09/10 05:31:13;;;;;;;;;;;21.40;63.70;;;;;;5008889;28;20285;-75
2022/09/10 05:33:39;;;;;;;;;;;21.50;63.80;;;;;;5006584;28;19914;-75
2022/09/10 05:36:08;;;;;;;;;;;21.40;63.70;;;;;;5004095;28;19913;-74
2022/09/10 05:38:33;;;;;;;;;;;21.50;63.80;;;;;;5008693;28;20361;-75
2022/09/10 05:40:59;;;;;;;;;;;21.50;63.70;;;;;;5005354;28;20115;-75
2022/09/10 05:43:26;;;;;;;;;;;21.40;63.80;;;;;;5017042;28;19917;-75
2022/09/10 05:45:51;;;;;;;;;;;21.40;63.90;;;;;;5019458;28;19980;-75
2022/09/10 05:48:17;;;;;;;;;;;21.40;64.10;;;;;;5019097;28;19940;-75
2022/09/10 05:50:44;;;;;;;;;;;21.40;63.90;;;;;;5020826;28;19918;-75
2022/09/10 05:53:10;;;;;;;;;;;21.40;63.90;;;;;;5007840;28;20357;-74
2022/09/10 05:55:35;;;;;;;;;;;21.40;63.90;;;;;;4995276;28;19920;-75
2022/09/10 05:58:01;;;;;;;;;;;21.40;64.20;;;;;;5005641;28;19913;-75
2022/09/10 06:00:27;;;;;;;;;;;21.40;64.10;;;;;;5011307;28;19975;-75
2022/09/10 06:02:52;;;;;;;;;;;21.40;64.10;;;;;;4982110;28;19930;-75
2022/09/10 06:05:21;;;;;;;;;;;21.40;63.90;;;;;;4988203;28;19928;-74
2022/09/10 06:07:47;;;;;;;;;;;21.40;63.90;;;;;;5015860;28;20439;-74
2022/09/10 06:10:13;;;;;;;;;;;21.40;64.00;;;;;;5014095;28;19949;-74
2022/09/10 06:12:39;;;;;;;;;;;21.40;64.10;;;;;;5012327;28;19927;-74
2022/09/10 06:15:06;;;;;;;;;;;21.40;64.20;;;;;;4997684;28;19921;-74
2022/09/10 06:17:31;;;;;;;;;;;21.40;64.10;;;;;;4997567;28;19966;-74
2022/09/10 06:19:57;;;;;;;;;;;21.50;64.20;;;;;;5022360;28;19929;-74
2022/09/10 06:22:22;;;;;;;;;;;21.40;64.20;;;;;;4994078;28;20351;-74
2022/09/10 06:24:48;;;;;;;;;;;21.40;64.30;;;;;;5002856;28;19929;-75
2022/09/10 06:27:13;;;;;;;;;;;21.40;64.40;;;;;;4990696;28;19920;-74
2022/09/10 06:29:39;;;;;;;;;;;21.40;64.40;;;;;;5015371;28;19964;-75
2022/09/10 06:32:04;;;;;;;;;;;21.40;64.30;;;;;;5016990;28;19914;-75
2022/09/10 06:34:30;;;;;;;;;;;21.40;64.30;;;;;;5020622;28;19921;-75
2022/09/10 06:36:57;;;;;;;;;;;21.50;64.50;;;;;;5006081;28;19921;-75
2022/09/10 06:39:22;;;;;;;;;;;21.40;64.40;;;;;;5011331;28;19917;-74
2022/09/10 06:41:47;;;;;;;;;;;21.40;64.40;;;;;;5008842;28;19918;-74
2022/09/10 06:44:13;;;;;;;;;;;21.40;64.60;;;;;;5012904;28;19917;-75
2022/09/10 06:46:38;;;;;;;;;;;21.40;64.70;;;;;;4992716;28;19964;-74
2022/09/10 06:49:04;;;;;;;;;;;21.40;64.80;;;;;;5010612;28;19920;-74
2022/09/10 06:51:30;;;;;;;;;;;21.40;64.80;;;;;;5008376;28;19922;-75
2022/09/10 06:53:56;;;;;;;;;;;21.40;65.00;;;;;;5006956;28;19913;-75
2022/09/10 06:56:21;;;;;;;;;;;21.40;65.00;;;;;;5005227;28;19917;-75
2022/09/10 06:58:47;;;;;;;;;;;21.40;65.00;;;;;;5014714;28;20361;-75
2022/09/10 07:01:16;;;;;;;;;;;21.30;65.10;;;;;;5014001;28;20100;-74
2022/09/10 07:03:45;;;;;;;;;;;21.30;65.00;;;;;;5005849;28;19936;-74
2022/09/10 07:06:14;;;;;;;;;;;21.40;65.10;;;;;;5014554;28;19928;-75
2022/09/10 07:08:40;;;;;;;;;;;21.40;65.20;;;;;;5007334;28;20056;-76
2022/09/10 07:11:06;;;;;;;;;;;21.40;65.10;;;;;;5012899;28;20402;-74
2022/09/10 07:13:32;;;;;;;;;;;21.40;65.10;;;;;;5015196;28;19917;-75
2022/09/10 07:15:58;;;;;;;;;;;21.30;65.10;;;;;;5012672;28;19925;-75
2022/09/10 07:18:24;;;;;;;;;;;21.40;65.30;;;;;;5007965;28;19932;-75
2022/09/10 07:20:49;;;;;;;;;;;21.40;65.20;;;;;;5007174;28;19924;-75
2022/09/10 07:23:15;;;;;;;;;;;21.40;65.00;;;;;;5010215;28;19914;-74
2022/09/10 07:25:41;;;;;;;;;;;21.40;65.70;;;;;;5015157;28;20008;-75
2022/09/10 07:28:11;;;;;;;;;;;21.40;64.80;;;;;;5011376;28;20006;-75
2022/09/10 07:30:40;;;;;;;;;;;21.40;65.00;;;;;;5019781;28;19941;-74
2022/09/10 07:33:06;;;;;;;;;;;21.40;65.00;;;;;;5013302;28;19913;-75
2022/09/10 07:35:37;;;;;;;;;;;21.40;65.20;;;;;;5012829;28;19940;-74
2022/09/10 07:38:06;;;;;;;;;;;21.40;65.20;;;;;;5014678;28;19913;-75
2022/09/10 07:40:31;;;;;;;;;;;21.40;65.30;;;;;;5010462;28;19967;-75
2022/09/10 07:42:58;;;;;;;;;;;21.40;65.20;;;;;;5030536;28;19917;-74
2022/09/10 07:45:24;;;;;;;;;;;21.40;65.10;;;;;;5009017;28;19920;-74
2022/09/10 07:47:50;;;;;;;;;;;21.50;65.10;;;;;;4992347;28;19922;-75
2022/09/10 07:50:15;;;;;;;;;;;21.40;65.80;;;;;;4998052;28;19921;-75
2022/09/10 07:52:41;;;;;;;;;;;21.50;65.20;;;;;;5008255;28;19910;-75
2022/09/10 07:55:07;;;;;;;;;;;21.40;65.20;;;;;;5000667;28;20283;-74
2022/09/10 07:57:33;;;;;;;;;;;21.40;65.20;;;;;;5014200;28;19964;-74
2022/09/10 07:59:59;;;;;;;;;;;21.40;65.30;;;;;;5014454;28;19925;-73
2022/09/10 08:02:25;;;;;;;;;;;21.40;65.60;;;;;;5011384;28;19927;-74
2022/09/10 08:04:50;;;;;;;;;;;21.40;65.60;;;;;;5003887;28;20040;-73
2022/09/10 08:07:16;;;;;;;;;;;21.40;65.60;;;;;;5005900;28;20012;-76
2022/09/10 08:09:42;;;;;;;;;;;21.40;65.60;;;;;;5020911;28;19917;-75
2022/09/10 08:12:07;;;;;;;;;;;21.40;65.60;;;;;;5021280;28;19921;-74
2022/09/10 08:14:33;;;;;;;;;;;21.40;65.80;;;;;;5019603;28;20400;-74
2022/09/10 08:16:59;;;;;;;;;;;21.40;65.70;;;;;;5012110;28;19996;-74
2022/09/10 08:19:25;;;;;;;;;;;21.40;65.50;;;;;;5018599;28;20379;-74
2022/09/10 08:21:50;;;;;;;;;;;21.40;65.70;;;;;;5014100;28;19961;-74
2022/09/10 08:24:16;;;;;;;;;;;21.40;66.00;;;;;;5012951;28;19917;-74
2022/09/10 08:26:41;;;;;;;;;;;21.40;65.90;;;;;;5004722;28;19917;-74
2022/09/10 08:29:07;;;;;;;;;;;21.30;66.00;;;;;;4997241;28;19924;-75
2022/09/10 08:31:33;;;;;;;;;;;21.30;66.00;;;;;;5010451;28;19923;-74
2022/09/10 08:33:58;;;;;;;;;;;21.40;66.30;;;;;;5009340;28;19913;-74
2022/09/10 08:36:25;;;;;;;;;;;21.30;65.90;;;;;;5002329;28;19918;-74
2022/09/10 08:38:50;;;;;;;;;;;21.40;65.80;;;;;;5005019;28;20299;-76
2022/09/10 08:41:35;;;;;;;;;;;21.40;66.10;;;;;;4990646;28;19917;-75
2022/09/10 08:44:02;;;;;;;;;;;21.40;65.90;;;;;;5011636;28;19917;-75
2022/09/10 08:46:29;;;;;;;;;;;21.40;66.00;;;;;;5010257;28;19959;-75
2022/09/10 08:49:06;;;;;;;;;;;21.40;65.90;;;;;;5012030;28;20340;-75
2022/09/10 08:51:33;;;;;;;;;;;21.40;66.00;;;;;;5003548;28;20438;-74
2022/09/10 08:54:00;;;;;;;;;;;21.40;66.00;;;;;;5001791;28;20012;-74
2022/09/10 08:56:26;;;;;;;;;;;21.40;66.20;;;;;;5007846;28;19921;-74
2022/09/10 08:58:58;;;;;;;;;;;21.40;66.20;;;;;;5002433;28;19918;-73
2022/09/10 09:01:32;;;;;;;;;;;21.40;66.10;;;;;;5000014;28;20405;-74
2022/09/10 09:03:58;;;;;;;;;;;21.40;66.10;;;;;;5009704;28;19929;-75
2022/09/10 09:06:27;;;;;;;;;;;21.50;66.50;;;;;;5011837;28;19920;-74
2022/09/10 09:08:53;;;;;;;;;;;21.40;66.30;;;;;;5016947;28;19920;-75
2022/09/10 09:11:22;;;;;;;;;;;21.40;66.40;;;;;;5016532;28;19920;-74
2022/09/10 09:14:00;;;;;;;;;;;21.50;66.50;;;;;;5017857;28;19968;-75
2022/09/10 09:16:34;;;;;;;;;;;21.50;66.10;;;;;;5017378;28;19921;-74
2022/09/10 09:19:22;;;;;;;;;;;21.40;66.30;;;;;;5010633;28;20858;-75
2022/09/10 09:21:51;;;;;;;;;;;21.50;66.40;;;;;;5011828;28;19917;-74
2022/09/10 09:24:21;;;;;;;;;;;21.50;66.30;;;;;;5015564;28;19937;-75
2022/09/10 09:26:46;;;;;;;;;;;21.40;66.40;;;;;;5016151;28;20359;-75
2022/09/10 09:29:13;;;;;;;;;;;21.50;66.40;;;;;;5020733;28;20003;-75
2022/09/10 09:31:41;;;;;;;;;;;21.40;66.50;;;;;;5020456;28;19918;-75
2022/09/10 09:34:13;;;;;;;;;;;21.40;66.50;;;;;;5013127;28;19918;-75
2022/09/10 09:36:43;;;;;;;;;;;21.50;66.40;;;;;;5006974;28;20016;-75
2022/09/10 09:39:15;;;;;;;;;;;21.50;66.30;;;;;;5007531;28;19913;-75
2022/09/10 09:41:59;;;;;;;;;;;21.50;66.50;;;;;;5014148;28;20381;-75
2022/09/10 09:44:27;;;;;;;;;;;21.50;66.40;;;;;;5007368;28;19965;-75
2022/09/10 09:46:52;;;;;;;;;;;21.50;66.70;;;;;;5017918;28;20373;-75
2022/09/10 09:49:18;;;;;;;;;;;21.50;66.40;;;;;;5019099;28;19929;-75
2022/09/10 09:51:44;;;;;;;;;;;21.60;66.40;;;;;;5012691;28;19925;-75
2022/09/10 09:54:14;;;;;;;;;;;21.60;66.40;;;;;;5019963;28;20365;-74
2022/09/10 09:56:41;;;;;;;;;;;21.60;66.40;;;;;;5011099;28;20440;-74
2022/09/10 09:59:27;;;;;;;;;;;21.60;66.50;;;;;;5010780;28;20556;-75
2022/09/10 10:01:53;;;;;;;;;;;21.50;66.80;;;;;;5019268;28;19929;-74
2022/09/10 10:04:21;;;;;;;;;;;21.50;66.80;;;;;;5020135;28;20012;-74
2022/09/10 10:06:51;;;;;;;;;;;21.50;66.60;;;;;;5018435;28;19967;-74
2022/09/10 10:09:19;;;;;;;;;;;21.60;66.30;;;;;;5022022;28;19987;-74
2022/09/10 10:11:49;;;;;;;;;;;21.60;66.50;;;;;;5016954;28;19918;-74
2022/09/10 10:14:24;;;;;;;;;;;21.60;66.70;;;;;;5036154;28;19928;-74
2022/09/10 10:16:51;;;;;;;;;;;21.40;67.10;;;;;;5019413;28;19913;-75
2022/09/10 10:19:47;;;;;;;;;;;21.40;67.60;;;;;;5019406;28;20118;-74
2022/09/10 10:22:12;;;;;;;;;;;21.40;67.70;;;;;;5009902;28;19952;-75
2022/09/10 10:24:38;;;;;;;;;;;21.30;67.80;;;;;;5025706;28;19913;-73
2022/09/10 10:27:03;;;;;;;;;;;21.30;67.90;;;;;;5007038;28;19918;-74
2022/09/10 10:29:28;;;;;;;;;;;21.20;67.90;;;;;;5005149;28;20434;-74
2022/09/10 10:31:55;;;;;;;;;;;21.20;67.80;;;;;;5009796;28;19913;-75
2022/09/10 10:34:33;;;;;;;;;;;21.40;68.10;;;;;;5004470;28;20008;-75
2022/09/10 10:37:05;;;;;;;;;;;21.30;67.80;;;;;;5011078;28;20385;-74
2022/09/10 10:39:49;;;;;;;;;;;21.30;67.80;;;;;;5015662;28;19917;-74
2022/09/10 10:42:28;;;;;;;;;;;21.30;67.80;;;;;;5019914;28;19941;-75
2022/09/10 10:45:03;;;;;;;;;;;21.30;67.80;;;;;;4996358;28;20380;-75
2022/09/10 10:47:38;;;;;;;;;;;21.30;67.80;;;;;;5021129;28;19977;-75
2022/09/10 10:50:20;;;;;;;;;;;21.40;67.90;;;;;;5002691;28;19913;-74
2022/09/10 10:52:54;;;;;;;;;;;21.40;67.90;;;;;;5018230;28;19913;-74
2022/09/10 10:55:24;;;;;;;;;;;21.40;67.50;;;;;;5018889;28;19920;-74
2022/09/10 10:57:52;;;;;;;;;;;21.50;67.10;;;;;;5009495;28;19925;-75
2022/09/10 11:00:18;;;;;;;;;;;21.50;66.90;;;;;;5016816;28;19926;-74
2022/09/10 11:03:02;;;;;;;;;;;21.50;67.20;;;;;;5012120;28;19921;-74
2022/09/10 11:05:31;;;;;;;;;;;21.50;66.90;;;;;;5016695;28;19921;-75
2022/09/10 11:07:58;;;;;;;;;;;21.60;66.70;;;;;;5007303;28;19921;-74
2022/09/10 11:10:34;;;;;;;;;;;21.70;66.60;;;;;;5001401;28;20365;-74
2022/09/10 11:13:22;;;;;;;;;;;21.70;66.40;;;;;;5019277;28;19913;-75
2022/09/10 11:15:54;;;;;;;;;;;21.80;66.00;;;;;;4977208;28;19914;-74
2022/09/10 11:18:22;;;;;;;;;;;21.90;65.70;;;;;;5012847;28;20382;-75
2022/09/10 11:20:55;;;;;;;;;;;21.90;65.40;;;;;;5025776;28;20385;-75
2022/09/10 11:23:39;;;;;;;;;;;21.90;65.60;;;;;;5021827;28;19913;-73
2022/09/10 11:26:23;;;;;;;;;;;21.80;65.70;;;;;;5019820;28;19928;-75
2022/09/10 11:28:55;;;;;;;;;;;21.90;65.90;;;;;;5017735;28;19920;-75
2022/09/10 11:31:31;;;;;;;;;;;21.80;65.80;;;;;;5020603;28;19917;-75
2022/09/10 11:33:58;;;;;;;;;;;21.80;65.80;;;;;;5015666;28;19959;-74
2022/09/10 11:36:25;;;;;;;;;;;21.80;65.90;;;;;;5011861;28;20276;-74
2022/09/10 11:39:06;;;;;;;;;;;21.80;66.10;;;;;;4999192;28;19941;-75
2022/09/10 11:41:34;;;;;;;;;;;21.70;66.50;;;;;;5017913;28;19925;-73
2022/09/10 11:44:18;;;;;;;;;;;21.70;66.80;;;;;;5007166;28;20373;-74
2022/09/10 11:46:48;;;;;;;;;;;21.70;67.00;;;;;;5010092;28;19917;-74
2022/09/10 11:49:16;;;;;;;;;;;21.70;66.90;;;;;;5010115;28;19952;-74
2022/09/10 11:51:42;;;;;;;;;;;21.70;66.90;;;;;;5015536;28;19917;-74
2022/09/10 11:54:10;;;;;;;;;;;21.70;67.20;;;;;;5002782;28;20303;-74
2022/09/10 11:56:39;;;;;;;;;;;21.70;67.00;;;;;;5001615;28;19990;-75
2022/09/10 11:59:24;;;;;;;;;;;21.80;67.10;;;;;;4992008;28;19925;-74
2022/09/10 12:01:54;;;;;;;;;;;21.90;66.50;;;;;;5014725;28;19921;-74
2022/09/10 12:04:33;;;;;;;;;;;21.90;66.40;;;;;;4988515;28;19975;-76
2022/09/10 12:06:58;;;;;;;;;;;21.90;66.40;;;;;;5013688;28;20039;-74
2022/09/10 12:09:24;;;;;;;;;;;21.80;66.50;;;;;;5012447;28;20393;-77
2022/09/10 12:11:55;;;;;;;;;;;21.80;66.50;;;;;;5007909;28;19913;-75
2022/09/10 12:14:21;;;;;;;;;;;21.90;66.10;;;;;;4989648;28;20025;-75
2022/09/10 12:16:56;;;;;;;;;;;21.90;65.80;;;;;;5019774;28;19975;-74
2022/09/10 12:19:25;;;;;;;;;;;21.90;66.00;;;;;;5009848;28;19917;-77
2022/09/10 12:21:52;;;;;;;;;;;21.80;65.80;;;;;;5015064;28;19918;-77
2022/09/10 12:24:30;;;;;;;;;;;21.90;65.90;;;;;;5009346;28;21379;-76
2022/09/10 12:26:55;;;;;;;;;;;21.90;65.80;;;;;;5008054;28;19952;-75
2022/09/10 12:29:28;;;;;;;;;;;21.80;65.70;;;;;;5007134;28;19921;-75
2022/09/10 12:32:06;;;;;;;;;;;21.80;65.50;;;;;;4989969;28;19960;-75
2022/09/10 12:34:32;;;;;;;;;;;21.80;65.10;;;;;;5007532;28;19921;-75
2022/09/10 12:36:57;;;;;;;;;;;21.80;65.00;;;;;;4991871;28;20358;-75
2022/09/10 12:39:23;;;;;;;;;;;21.80;64.90;;;;;;5005779;28;20673;-75
2022/09/10 12:41:48;;;;;;;;;;;21.80;64.90;;;;;;4993361;28;20007;-75
2022/09/10 12:44:26;;;;;;;;;;;21.80;64.80;;;;;;5012044;28;20392;-75
2022/09/10 12:47:10;;;;;;;;;;;21.70;64.80;;;;;;5005389;28;19956;-75
2022/09/10 12:49:56;;;;;;;;;;;21.70;64.80;;;;;;5011838;28;19913;-75
2022/09/10 12:52:24;;;;;;;;;;;21.70;64.80;;;;;;5006023;28;19960;-74
2022/09/10 12:54:56;;;;;;;;;;;21.70;64.50;;;;;;5008012;28;20342;-75
2022/09/10 12:57:30;;;;;;;;;;;21.80;64.40;;;;;;5003305;28;19945;-75
2022/09/10 13:00:10;;;;;;;;;;;21.80;64.20;;;;;;5014121;28;19918;-76
2022/09/10 13:02:39;;;;;;;;;;;21.90;64.70;;;;;;5010413;28;20344;-75
2022/09/10 13:05:24;;;;;;;;;;;21.80;63.70;;;;;;5013770;28;19921;-75
2022/09/10 13:07:59;;;;;;;;;;;21.80;63.80;;;;;;4983289;28;19918;-74
2022/09/10 13:10:25;;;;;;;;;;;21.80;63.70;;;;;;5013122;28;20389;-73
2022/09/10 13:12:53;;;;;;;;;;;21.90;63.70;;;;;;5008060;28;20709;-74
2022/09/10 13:15:20;;;;;;;;;;;21.80;63.60;;;;;;5008124;28;19968;-74
2022/09/10 13:17:46;;;;;;;;;;;21.90;63.70;;;;;;5008369;28;19921;-74
2022/09/10 13:20:12;;;;;;;;;;;21.90;63.60;;;;;;5001901;28;19926;-73
2022/09/10 13:22:56;;;;;;;;;;;21.90;63.60;;;;;;5004960;28;20000;-73
2022/09/10 13:25:38;;;;;;;;;;;21.90;63.60;;;;;;5009717;28;19918;-73
2022/09/10 13:28:23;;;;;;;;;;;21.90;63.50;;;;;;5005024;28;19914;-74
2022/09/10 13:30:57;;;;;;;;;;;21.80;63.50;;;;;;5005951;28;19925;-73
2022/09/10 13:33:22;;;;;;;;;;;21.80;63.70;;;;;;5004430;28;19924;-73
2022/09/10 13:35:52;;;;;;;;;;;21.80;63.70;;;;;;4987350;28;19913;-74
2022/09/10 13:38:40;;;;;;;;;;;21.70;63.80;;;;;;5005433;28;19921;-74
2022/09/10 13:41:11;;;;;;;;;;;21.70;63.90;;;;;;5004834;28;19921;-74
2022/09/10 13:43:54;;;;;;;;;;;21.70;63.90;;;;;;4985970;28;19917;-74
2022/09/10 13:46:25;;;;;;;;;;;21.80;63.90;;;;;;5005953;28;19963;-75
2022/09/10 13:49:05;;;;;;;;;;;21.80;63.90;;;;;;5002309;28;19921;-75
2022/09/10 13:51:48;;;;;;;;;;;21.90;63.70;;;;;;5004558;28;19913;-73
2022/09/10 13:54:30;;;;;;;;;;;21.90;63.40;;;;;;5001687;28;19925;-74
2022/09/10 13:56:57;;;;;;;;;;;22.00;63.10;;;;;;4985098;28;20352;-74
2022/09/10 13:59:25;;;;;;;;;;;22.10;62.90;;;;;;5007160;28;19913;-75
2022/09/10 14:01:53;;;;;;;;;;;22.20;62.90;;;;;;5005065;28;19917;-74
2022/09/10 14:04:22;;;;;;;;;;;22.20;62.80;;;;;;5009333;28;20012;-74
2022/09/10 14:06:48;;;;;;;;;;;22.30;62.70;;;;;;5002957;28;19921;-74
2022/09/10 14:09:15;;;;;;;;;;;22.20;62.90;;;;;;5000957;28;20403;-74
2022/09/10 14:11:40;;;;;;;;;;;22.20;63.00;;;;;;5008256;28;20381;-74
2022/09/10 14:14:08;;;;;;;;;;;22.20;63.10;;;;;;5004236;28;19927;-74
2022/09/10 14:16:35;;;;;;;;;;;22.20;63.40;;;;;;5007798;28;19956;-74
2022/09/10 14:19:01;;;;;;;;;;;22.20;63.30;;;;;;5007148;28;19927;-73
2022/09/10 14:21:27;;;;;;;;;;;22.20;63.50;;;;;;4984246;28;19925;-73
2022/09/10 14:23:54;;;;;;;;;;;22.30;63.20;;;;;;5006879;28;20381;-73
2022/09/10 14:26:23;;;;;;;;;;;22.40;63.00;;;;;;5013829;28;19944;-74